Tropical Cyclones
[Index]
Main Index Home Page Stock Weather Photos Extreme Storms Discussion Storm News and Storm Chasing Reports Tropical Cyclones / Hurricanes / Typhoons Weather Data and Links Wild Fires / Bushfires Weather Observation Techniques Weather Picture Catalogue Tornado Pictures and Reports Stock Video Footage and DVDs for sale
Season 2010-2011 Tropical Cyclone BIANCA Track Map
Season 2010-2011 Summaries: [BoM-AU] [JTWC-AU] [JTWC-SIO] [JTWC-SPAC] [JTWC-SH]
<<- Previous TC | JTWC 2010-2011 Season | Next TC ->>

click for intensity scale information  Lat/long Grid: Show Hide

 Date Labels: Show Hide

Joint Typhoon Warning Centre Cyclone Data

Name: BIANCA

24 Jan 2011 06:00 UTC to 30 Jan 2011 06:00 UTC

    date/time    lat    long     hPa   cat  kts
2011-01-24 06   14.4   126.4    1004         25          
2011-01-24 12   15.0   125.9    1004         25          
2011-01-24 18   15.5   125.3    1004         25          
2011-01-25 00   16.2   124.4     998         30          
2011-01-25 06   16.7   123.2     999         30          
2011-01-25 12   17.2   121.9     995         35          
2011-01-25 18   18.0   120.8     993    1    40          
2011-01-26 00   18.8   119.7     989    1    45          
2011-01-26 06   19.3   118.4     982    2    55          
2011-01-26 06   19.3   118.4     982    2    55          
2011-01-26 12   19.3   117.0     978    2    60          
2011-01-26 12   19.3   117.0     978    2    60          
2011-01-26 18   19.4   115.9     970    2    70          
2011-01-26 18   19.4   115.9     970    2    70          
2011-01-27 00   19.7   114.9     970    2    70          
2011-01-27 00   19.7   114.9     970    2    70          
2011-01-27 06   20.2   113.9     967    3    75          
2011-01-27 06   20.2   113.9     967    3    75          
2011-01-27 12   20.8   112.9     963    3    80          
2011-01-27 12   20.8   112.9     963    3    80          
2011-01-27 12   20.8   112.9     963    3    80          
2011-01-27 18   21.8   111.6     956    3    90          
2011-01-27 18   21.8   111.6     956    3    90          
2011-01-27 18   21.8   111.6     956    3    90          
2011-01-28 00   22.8   110.2     952    3    95          
2011-01-28 00   22.8   110.2     952    3    95          
2011-01-28 00   22.8   110.2     952    3    95          
2011-01-28 06   23.7   109.0     952    3    95          
2011-01-28 06   23.7   109.0     952    3    95          
2011-01-28 06   23.7   109.0     952    3    95          
2011-01-28 12   25.0   108.3     956    3    90          
2011-01-28 12   25.0   108.3     956    3    90          
2011-01-28 12   25.0   108.3     956    3    90          
2011-01-28 18   26.4   107.9     959    3    85          
2011-01-28 18   26.4   107.9     959    3    85          
2011-01-28 18   26.4   107.9     959    3    85          
2011-01-29 00   27.7   107.9     963    3    80          
2011-01-29 00   27.7   107.9     963    3    80          
2011-01-29 00   27.7   107.9     963    3    80          
2011-01-29 06   29.1   108.3     974    2    65          
2011-01-29 06   29.1   108.3     974    2    65          
2011-01-29 12   30.2   109.7     985    1    50          
2011-01-29 12   30.2   109.7     985    1    50          
2011-01-29 18   31.0   110.9     989    1    45          
2011-01-30 00   31.6   112.3     993    1    40          
2011-01-30 06   31.8   113.6     996         35          
Winds are 1-min average.

Tropical cyclone tracks developed by Michael Bath using data from the Joint Typhoon Warning Centre Best Tracks and Google Maps.


[Australian Severe Weather index] [Copyright Notice] [Email Contacts] [Search This Site] [Privacy Policy]
Document: tropical_cyclone_bianca.htm Updated: 28 June 2017